Terminal Aerodrome Forecast
Issued by NWS Wakefield, VA

Home | Current Version | Previous Version | Text Only | Print | Product List | Glossary On
Versions: 1 2 3 4 5 6 7 8 9 10 11 12 13 14 15 16 17 18 19 20 21 22 23 24 25 26 27 28 29 30 31 32 33 34
999
FTUS41 KAKQ 061742
TAFECG
TAF
KECG 061742Z 0618/0718 30005KT 2SM -SHRA BR BKN020 OVC040
      TEMPO 0618/0619 5SM -SHRA BR SCT020 BKN035
     FM061900 27005KT P6SM SCT025 BKN060
      TEMPO 0621/0624 5SM -SHRA BR BKN025
     FM070200 21005KT P6SM SCT025 OVC040
     FM071300 28007KT P6SM SCT040=

USA.gov is the U.S. government's official web portal to all federal, state and local government web resources and services.